Charleyville, Australia
Current Conditions -  °F | °C
As of 8:00 PM on Sunday 21 Dec 2014 (Local Time) from YBCV Reporting Station
Clear Clear  
Wind Chill: 90°   Ceiling: Unl
Heat Index: 90°   Visibility: 6mi
Dew Point: 54°   Wind: 7mph
Humidity: 29%   Direction: 10°N
Pressure: 29.83"   Gusts: NA
Location:  26.42°S, 146.28°E
Report Text: YBCV 211000Z AUTO 01006KT 9999 // NCD 32/12 Q1010
Loading
Personal Weather Stations






























Interactive Weather Map New forecast layout! Learn more

10-Day Weather Forecast

Advertisements
Track Severe Weather on mobile